Terminal Aerodrome Forecast
Issued by NWS

Home | Current Version | Previous Version | Text Only | Print | Product List | Glossary On
Versions: 1 2 3 4 5 6 7 8 9 10 11 12 13
000
FTUS41 KILN 041700 RRA
TAFLCK
TAF
KLCK 041743Z 0418/0518 22012G22KT P6SM SCT050 BKN150
     FM042200 22012KT 5SM -SHRA VCTS BKN060CB OVC150
     FM050100 21007KT 5SM -SHRA BKN050 OVC100
     FM051100 22007KT P6SM -SHRA BKN050 OVC100
     FM051500 25010KT P6SM VCSH BKN050 OVC150=

USA.gov is the U.S. government's official web portal to all federal, state and local government web resources and services.